Pagrindinis puslapis
METAR-TAF:

METAR-TAF

Oro uostai :

Dniepropetrovskas, Ukraina

platuma: 48-21-26N, ilguma: 035-06-02E, Aukštis: 147 m

Dabartinis oras

Ataskaita buvo paskelbta 23 minutes, ne 20:30 UTC
Vėjas 8 kt iš Vakarų
Temperatūra 10°C
Drėgmė 71%
Slėgis 1014 hPa
Matomumas 10 km arba daugiau
nėra debesų žemiau 1500 m ir nėra kamuolinių lietaus debesų

METAR: UKDD 222030Z 27004MPS CAVOK 10/05 Q1014 R26/090070 NOSIG

Laikas: 23:53 (20:53 UTC)

Prognozė

Ataskaita buvo paskelbta 3 valandos ir 50 minutes, ne 17:03 UTC
Prognozė galioja nuo 22 metu 18 UTC su 23 metu 18 UTC
Vėjas 10 kt iš Vakarų/Šiaurės Vakarų su gūsio iki 19 kt
Matomumas 10 km arba daugiau
Išsisklaidę debesys ne aukštis 2500 ft
Su prošvaistėmis ne aukštis 4000 ft
Tapsmas
nuo 23 metu 01 UTC su 23 metu 03 UTC
Vėjas 8 kt iš Šiaurės/Šiaurės Rytų su gūsio iki 17 kt

TAF: UKDD 221703Z 2218/2318 29005G10MPS 9999 SCT025 BKN040 BECMG 2301/2303 02004G09MPS

Orai ataskaitas ir orų prognozės (METAR, TAF).

turimą stotys yra geltonos ir raudonos taškus žemėlapyje.

Perkelti pele per norėdami pamatyti stoties vardą.

Tada spustelėkite, norėdami matyti oro stebėjimo ir prognozės.

Norėdami pakeisti žemėlapį: spustelėkite ant žalios mygtukų su juodo kryžiaus žemyn,; žalią mygtuką su brūkšneliu, jei norite nutolinti; arba žalių rodyklių gretimoms žemėlapius.


METAR-TAF: